sensor_id;sensor_type;location;lat;lon;timestamp;pressure;altitude;pressure_sealevel;temperature
65272;BMP280;51868;48.812;8.198;2022-07-29T00:01:16;100091.78;;;25.10
65272;BMP280;51868;48.812;8.198;2022-07-29T00:03:43;100094.00;;;25.06
65272;BMP280;51868;48.812;8.198;2022-07-29T00:06:09;100099.03;;;25.01
65272;BMP280;51868;48.812;8.198;2022-07-29T00:08:36;100099.16;;;24.95
65272;BMP280;51868;48.812;8.198;2022-07-29T00:13:49;100089.34;;;24.88
65272;BMP280;51868;48.812;8.198;2022-07-29T00:16:17;100090.78;;;24.87
65272;BMP280;51868;48.812;8.198;2022-07-29T00:18:43;100090.13;;;24.84
65272;BMP280;51868;48.812;8.198;2022-07-29T00:21:18;100090.19;;;24.80
65272;BMP280;51868;48.812;8.198;2022-07-29T00:23:47;100098.06;;;24.75
65272;BMP280;51868;48.812;8.198;2022-07-29T00:26:19;100095.31;;;24.69
65272;BMP280;51868;48.812;8.198;2022-07-29T00:28:48;100091.13;;;24.66
65272;BMP280;51868;48.812;8.198;2022-07-29T00:31:15;100089.78;;;24.61
65272;BMP280;51868;48.812;8.198;2022-07-29T00:33:46;100095.56;;;24.55
65272;BMP280;51868;48.812;8.198;2022-07-29T00:36:12;100089.22;;;24.53
65272;BMP280;51868;48.812;8.198;2022-07-29T00:38:38;100082.91;;;24.50
65272;BMP280;51868;48.812;8.198;2022-07-29T00:41:06;100095.00;;;24.46
65272;BMP280;51868;48.812;8.198;2022-07-29T00:43:33;100092.25;;;24.40
65272;BMP280;51868;48.812;8.198;2022-07-29T00:46:00;100086.66;;;24.36
65272;BMP280;51868;48.812;8.198;2022-07-29T00:48:27;100086.03;;;24.30
65272;BMP280;51868;48.812;8.198;2022-07-29T00:50:56;100086.16;;;24.22
65272;BMP280;51868;48.812;8.198;2022-07-29T00:53:29;100089.09;;;24.15
65272;BMP280;51868;48.812;8.198;2022-07-29T00:55:58;100091.28;;;24.11
65272;BMP280;51868;48.812;8.198;2022-07-29T00:58:26;100088.53;;;24.05
65272;BMP280;51868;48.812;8.198;2022-07-29T01:00:53;100085.03;;;24.02
65272;BMP280;51868;48.812;8.198;2022-07-29T01:03:19;100081.53;;;24.00
65272;BMP280;51868;48.812;8.198;2022-07-29T01:05:46;100086.50;;;23.99
65272;BMP280;51868;48.812;8.198;2022-07-29T01:08:15;100086.50;;;23.97
65272;BMP280;51868;48.812;8.198;2022-07-29T01:10:50;100085.84;;;23.95
65272;BMP280;51868;48.812;8.198;2022-07-29T01:13:21;100088.00;;;23.92
65272;BMP280;51868;48.812;8.198;2022-07-29T01:15:52;100083.88;;;23.85
65272;BMP280;51868;48.812;8.198;2022-07-29T01:18:23;100080.41;;;23.78
65272;BMP280;51868;48.812;8.198;2022-07-29T01:21:07;100080.44;;;23.74
65272;BMP280;51868;48.812;8.198;2022-07-29T01:23:51;100080.50;;;23.70
65272;BMP280;51868;48.812;8.198;2022-07-29T01:26:33;100078.44;;;23.64
65272;BMP280;51868;48.812;8.198;2022-07-29T01:29:05;100078.47;;;23.60
65272;BMP280;51868;48.812;8.198;2022-07-29T01:31:42;100079.22;;;23.59
65272;BMP280;51868;48.812;8.198;2022-07-29T01:34:16;100080.69;;;23.56
65272;BMP280;51868;48.812;8.198;2022-07-29T01:36:50;100084.22;;;23.54
65272;BMP280;51868;48.812;8.198;2022-07-29T01:39:19;100077.19;;;23.51
65272;BMP280;51868;48.812;8.198;2022-07-29T01:41:56;100084.31;;;23.46
65272;BMP280;51868;48.812;8.198;2022-07-29T01:44:30;100084.34;;;23.42
65272;BMP280;51868;48.812;8.198;2022-07-29T01:47:01;100085.78;;;23.41
65272;BMP280;51868;48.812;8.198;2022-07-29T01:49:35;100078.69;;;23.44
65272;BMP280;51868;48.812;8.198;2022-07-29T01:52:07;100083.66;;;23.44
65272;BMP280;51868;48.812;8.198;2022-07-29T01:54:39;100085.81;;;23.39
65272;BMP280;51868;48.812;8.198;2022-07-29T01:57:09;100085.81;;;23.39
65272;BMP280;51868;48.812;8.198;2022-07-29T01:59:40;100087.22;;;23.38
65272;BMP280;51868;48.812;8.198;2022-07-29T02:02:08;100094.38;;;23.33
65272;BMP280;51868;48.812;8.198;2022-07-29T02:04:37;100091.59;;;23.27
65272;BMP280;51868;48.812;8.198;2022-07-29T02:07:11;100089.56;;;23.21
65272;BMP280;51868;48.812;8.198;2022-07-29T02:09:39;100086.06;;;23.17
65272;BMP280;51868;48.812;8.198;2022-07-29T02:12:08;100091.75;;;23.12
65272;BMP280;51868;48.812;8.198;2022-07-29T02:14:43;100100.25;;;23.12
65272;BMP280;51868;48.812;8.198;2022-07-29T02:17:12;100096.72;;;23.12
65272;BMP280;51868;48.812;8.198;2022-07-29T02:19:42;100100.97;;;23.11
65272;BMP280;51868;48.812;8.198;2022-07-29T02:22:11;100097.47;;;23.06
65272;BMP280;51868;48.812;8.198;2022-07-29T02:24:40;100102.44;;;23.04
65272;BMP280;51868;48.812;8.198;2022-07-29T02:27:09;100102.47;;;23.00
65272;BMP280;51868;48.812;8.198;2022-07-29T02:29:37;100098.97;;;22.99
65272;BMP280;51868;48.812;8.198;2022-07-29T02:32:07;100101.09;;;22.97
65272;BMP280;51868;48.812;8.198;2022-07-29T02:34:35;100099.72;;;22.94
65272;BMP280;51868;48.812;8.198;2022-07-29T02:37:08;100096.22;;;22.91
65272;BMP280;51868;48.812;8.198;2022-07-29T02:39:36;100103.28;;;22.88
65272;BMP280;51868;48.812;8.198;2022-07-29T02:42:06;100103.34;;;22.82
65272;BMP280;51868;48.812;8.198;2022-07-29T02:44:33;100103.41;;;22.76
65272;BMP280;51868;48.812;8.198;2022-07-29T02:47:10;100104.16;;;22.72
65272;BMP280;51868;48.812;8.198;2022-07-29T02:49:46;100110.53;;;22.69
65272;BMP280;51868;48.812;8.198;2022-07-29T02:52:21;100107.69;;;22.67
65272;BMP280;51868;48.812;8.198;2022-07-29T02:54:52;100111.97;;;22.66
65272;BMP280;51868;48.812;8.198;2022-07-29T02:57:22;100114.81;;;22.64
65272;BMP280;51868;48.812;8.198;2022-07-29T02:59:57;100120.50;;;22.59
65272;BMP280;51868;48.812;8.198;2022-07-29T03:02:26;100115.56;;;22.56
65272;BMP280;51868;48.812;8.198;2022-07-29T03:04:56;100121.88;;;22.61
65272;BMP280;51868;48.812;8.198;2022-07-29T03:07:24;100120.47;;;22.64
65272;BMP280;51868;48.812;8.198;2022-07-29T03:09:53;100123.34;;;22.57
65272;BMP280;51868;48.812;8.198;2022-07-29T03:12:20;100129.06;;;22.47
65272;BMP280;51868;48.812;8.198;2022-07-29T03:14:50;100127.00;;;22.36
65272;BMP280;51868;48.812;8.198;2022-07-29T03:17:21;100120.69;;;22.27
65272;BMP280;51868;48.812;8.198;2022-07-29T03:19:58;100124.97;;;22.22
65272;BMP280;51868;48.812;8.198;2022-07-29T03:22:25;100122.84;;;22.20
65272;BMP280;51868;48.812;8.198;2022-07-29T03:24:55;100123.53;;;22.19
65272;BMP280;51868;48.812;8.198;2022-07-29T03:27:24;100115.06;;;22.19
65272;BMP280;51868;48.812;8.198;2022-07-29T03:29:51;100122.16;;;22.16
65272;BMP280;51868;48.812;8.198;2022-07-29T03:32:18;100119.38;;;22.10
65272;BMP280;51868;48.812;8.198;2022-07-29T03:34:44;100125.03;;;22.05
65272;BMP280;51868;48.812;8.198;2022-07-29T03:37:12;100124.31;;;22.03
65272;BMP280;51868;48.812;8.198;2022-07-29T03:39:40;100127.91;;;22.01
65272;BMP280;51868;48.812;8.198;2022-07-29T03:42:10;100127.91;;;22.01
65272;BMP280;51868;48.812;8.198;2022-07-29T03:44:47;100136.38;;;22.01
65272;BMP280;51868;48.812;8.198;2022-07-29T03:47:17;100130.00;;;22.01
65272;BMP280;51868;48.812;8.198;2022-07-29T03:49:47;100136.38;;;21.97
65272;BMP280;51868;48.812;8.198;2022-07-29T03:52:16;100132.16;;;21.94
65272;BMP280;51868;48.812;8.198;2022-07-29T03:54:43;100135.00;;;21.90
65272;BMP280;51868;48.812;8.198;2022-07-29T03:57:13;100140.63;;;21.92
65272;BMP280;51868;48.812;8.198;2022-07-29T03:59:41;100137.81;;;21.94
65272;BMP280;51868;48.812;8.198;2022-07-29T04:02:10;100139.94;;;21.92
65272;BMP280;51868;48.812;8.198;2022-07-29T04:04:38;100144.84;;;21.91
65272;BMP280;51868;48.812;8.198;2022-07-29T04:07:06;100137.84;;;21.90
65272;BMP280;51868;48.812;8.198;2022-07-29T04:09:38;100143.50;;;21.86
65272;BMP280;51868;48.812;8.198;2022-07-29T04:12:05;100144.94;;;21.79
65272;BMP280;51868;48.812;8.198;2022-07-29T04:14:38;100147.72;;;21.75
65272;BMP280;51868;48.812;8.198;2022-07-29T04:17:06;100142.09;;;21.73
65272;BMP280;51868;48.812;8.198;2022-07-29T04:19:34;100153.41;;;21.71
65272;BMP280;51868;48.812;8.198;2022-07-29T04:22:01;100152.69;;;21.68
65272;BMP280;51868;48.812;8.198;2022-07-29T04:24:28;100154.13;;;21.65
65272;BMP280;51868;48.812;8.198;2022-07-29T04:26:56;100161.91;;;21.63
65272;BMP280;51868;48.812;8.198;2022-07-29T04:29:27;100159.09;;;21.59
65272;BMP280;51868;48.812;8.198;2022-07-29T04:31:56;100164.75;;;21.59
65272;BMP280;51868;48.812;8.198;2022-07-29T04:34:23;100160.53;;;21.58
65272;BMP280;51868;48.812;8.198;2022-07-29T04:36:52;100161.91;;;21.59
65272;BMP280;51868;48.812;8.198;2022-07-29T04:39:20;100174.63;;;21.60
65272;BMP280;51868;48.812;8.198;2022-07-29T04:41:46;100158.38;;;21.60
65272;BMP280;51868;48.812;8.198;2022-07-29T04:44:16;100160.50;;;21.62
65272;BMP280;51868;48.812;8.198;2022-07-29T04:46:42;100170.38;;;21.63
65272;BMP280;51868;48.812;8.198;2022-07-29T04:49:09;100172.47;;;21.68
65272;BMP280;51868;48.812;8.198;2022-07-29T04:51:39;100168.97;;;21.70
65272;BMP280;51868;48.812;8.198;2022-07-29T04:54:05;100175.31;;;21.70
65272;BMP280;51868;48.812;8.198;2022-07-29T04:56:34;100178.81;;;21.73
65272;BMP280;51868;48.812;8.198;2022-07-29T04:59:01;100180.25;;;21.64
65272;BMP280;51868;48.812;8.198;2022-07-29T05:01:29;100176.03;;;21.57
65272;BMP280;51868;48.812;8.198;2022-07-29T05:03:56;100175.34;;;21.54
65272;BMP280;51868;48.812;8.198;2022-07-29T05:06:22;100170.38;;;21.61
65272;BMP280;51868;48.812;8.198;2022-07-29T05:08:51;100177.44;;;21.66
65272;BMP280;51868;48.812;8.198;2022-07-29T05:11:20;100182.34;;;21.77
65272;BMP280;51868;48.812;8.198;2022-07-29T05:13:47;100189.38;;;21.87
65272;BMP280;51868;48.812;8.198;2022-07-29T05:16:16;100182.34;;;21.86
65272;BMP280;51868;48.812;8.198;2022-07-29T05:18:44;100185.84;;;21.90
65272;BMP280;51868;48.812;8.198;2022-07-29T05:21:11;100181.59;;;21.93
65272;BMP280;51868;48.812;8.198;2022-07-29T05:23:37;100182.97;;;22.00
65272;BMP280;51868;48.812;8.198;2022-07-29T05:26:07;100184.41;;;22.01
65272;BMP280;51868;48.812;8.198;2022-07-29T05:28:33;100184.38;;;22.03
65272;BMP280;51868;48.812;8.198;2022-07-29T05:31:03;100185.09;;;22.04
65272;BMP280;51868;48.812;8.198;2022-07-29T05:33:30;100190.00;;;22.08
65272;BMP280;51868;48.812;8.198;2022-07-29T05:35:58;100187.91;;;22.08
65272;BMP280;51868;48.812;8.198;2022-07-29T05:38:28;100194.22;;;22.17
65272;BMP280;51868;48.812;8.198;2022-07-29T05:40:56;100191.38;;;22.25
65272;BMP280;51868;48.812;8.198;2022-07-29T05:43:26;100196.94;;;22.39
65272;BMP280;51868;48.812;8.198;2022-07-29T05:46:00;100195.50;;;22.46
65272;BMP280;51868;48.812;8.198;2022-07-29T05:48:26;100198.31;;;22.50
65272;BMP280;51868;48.812;8.198;2022-07-29T05:50:54;100201.81;;;22.57
65272;BMP280;51868;48.812;8.198;2022-07-29T05:53:24;100206.03;;;22.58
65272;BMP280;51868;48.812;8.198;2022-07-29T05:55:51;100215.25;;;22.54
65272;BMP280;51868;48.812;8.198;2022-07-29T05:58:18;100227.97;;;22.57
65272;BMP280;51868;48.812;8.198;2022-07-29T06:00:46;100215.25;;;22.54
65272;BMP280;51868;48.812;8.198;2022-07-29T06:03:20;100222.38;;;22.49
65272;BMP280;51868;48.812;8.198;2022-07-29T06:05:48;100230.84;;;22.47
65272;BMP280;51868;48.812;8.198;2022-07-29T06:08:18;100232.94;;;22.51
65272;BMP280;51868;48.812;8.198;2022-07-29T06:10:46;100226.53;;;22.61
65272;BMP280;51868;48.812;8.198;2022-07-29T06:13:13;100228.56;;;22.74
65272;BMP280;51868;48.812;8.198;2022-07-29T06:15:41;100234.88;;;22.85
65272;BMP280;51868;48.812;8.198;2022-07-29T06:18:08;100229.19;;;22.89
65272;BMP280;51868;48.812;8.198;2022-07-29T06:20:36;100229.91;;;22.90
65272;BMP280;51868;48.812;8.198;2022-07-29T06:23:04;100230.56;;;22.98
65272;BMP280;51868;48.812;8.198;2022-07-29T06:25:33;100230.41;;;23.19
65272;BMP280;51868;48.812;8.198;2022-07-29T06:28:03;100226.66;;;23.43
65272;BMP280;51868;48.812;8.198;2022-07-29T06:30:33;100231.47;;;23.58
65272;BMP280;51868;48.812;8.198;2022-07-29T06:32:59;100233.41;;;23.78
65272;BMP280;51868;48.812;8.198;2022-07-29T06:35:27;100224.03;;;23.94
65272;BMP280;51868;48.812;8.198;2022-07-29T06:37:54;100226.78;;;24.00
65272;BMP280;51868;48.812;8.198;2022-07-29T06:40:21;100228.03;;;24.11
65272;BMP280;51868;48.812;8.198;2022-07-29T06:43:14;100232.22;;;24.18
65272;BMP280;51868;48.812;8.198;2022-07-29T06:45:41;100234.28;;;24.24
65272;BMP280;51868;48.812;8.198;2022-07-29T06:48:13;100232.00;;;24.35
65272;BMP280;51868;48.812;8.198;2022-07-29T06:50:40;100234.78;;;24.41
65272;BMP280;51868;48.812;8.198;2022-07-29T06:53:07;100233.34;;;24.42
65272;BMP280;51868;48.812;8.198;2022-07-29T06:55:33;100233.25;;;24.48
65272;BMP280;51868;48.812;8.198;2022-07-29T06:58:02;100237.47;;;24.51
65272;BMP280;51868;48.812;8.198;2022-07-29T07:00:47;100238.22;;;24.50
65272;BMP280;51868;48.812;8.198;2022-07-29T07:03:14;100245.88;;;24.59
65272;BMP280;51868;48.812;8.198;2022-07-29T07:05:43;100248.00;;;24.61
65272;BMP280;51868;48.812;8.198;2022-07-29T07:11:08;100251.38;;;24.69
65272;BMP280;51868;48.812;8.198;2022-07-29T07:13:35;100244.44;;;24.58
65272;BMP280;51868;48.812;8.198;2022-07-29T07:16:10;100243.09;;;24.55
65272;BMP280;51868;48.812;8.198;2022-07-29T07:18:43;100255.91;;;24.54
65272;BMP280;51868;48.812;8.198;2022-07-29T07:21:10;100247.84;;;24.69
65272;BMP280;51868;48.812;8.198;2022-07-29T07:23:37;100247.00;;;24.79
65272;BMP280;51868;48.812;8.198;2022-07-29T07:26:11;100251.56;;;25.07
65272;BMP280;51868;48.812;8.198;2022-07-29T07:28:40;100247.63;;;25.28
65272;BMP280;51868;48.812;8.198;2022-07-29T07:31:14;100253.06;;;25.43
65272;BMP280;51868;48.812;8.198;2022-07-29T07:34:10;100247.38;;;25.45
65272;BMP280;51868;48.812;8.198;2022-07-29T07:36:39;100244.28;;;25.57
65272;BMP280;51868;48.812;8.198;2022-07-29T07:39:06;100257.47;;;25.73
65272;BMP280;51868;48.812;8.198;2022-07-29T07:41:33;100253.88;;;25.76
65272;BMP280;51868;48.812;8.198;2022-07-29T07:44:05;100253.75;;;25.82
65272;BMP280;51868;48.812;8.198;2022-07-29T07:46:33;100256.44;;;25.91
65272;BMP280;51868;48.812;8.198;2022-07-29T07:49:00;100252.38;;;25.81
65272;BMP280;51868;48.812;8.198;2022-07-29T07:51:27;100252.47;;;25.75
65272;BMP280;51868;48.812;8.198;2022-07-29T07:53:56;100248.34;;;25.68
65272;BMP280;51868;48.812;8.198;2022-07-29T07:56:22;100254.84;;;25.63
65272;BMP280;51868;48.812;8.198;2022-07-29T07:58:49;100261.28;;;25.61
65272;BMP280;51868;48.812;8.198;2022-07-29T08:01:16;100257.06;;;25.58
65272;BMP280;51868;48.812;8.198;2022-07-29T08:03:49;100272.00;;;25.56
65272;BMP280;51868;48.812;8.198;2022-07-29T08:06:25;100268.16;;;25.72
65272;BMP280;51868;48.812;8.198;2022-07-29T08:08:52;100261.38;;;25.94
65272;BMP280;51868;48.812;8.198;2022-07-29T08:11:20;100266.47;;;25.88
65272;BMP280;51868;48.812;8.198;2022-07-29T08:13:48;100269.06;;;26.00
65272;BMP280;51868;48.812;8.198;2022-07-29T08:16:15;100264.22;;;26.27
65272;BMP280;51868;48.812;8.198;2022-07-29T08:18:43;100275.47;;;26.66
65272;BMP280;51868;48.812;8.198;2022-07-29T08:21:14;100269.09;;;26.95
65272;BMP280;51868;48.812;8.198;2022-07-29T08:23:42;100265.00;;;27.17
65272;BMP280;51868;48.812;8.198;2022-07-29T08:26:15;100269.06;;;27.24
65272;BMP280;51868;48.812;8.198;2022-07-29T08:28:43;100273.22;;;27.29
65272;BMP280;51868;48.812;8.198;2022-07-29T08:31:11;100274.78;;;27.24
65272;BMP280;51868;48.812;8.198;2022-07-29T08:33:39;100283.09;;;27.05
65272;BMP280;51868;48.812;8.198;2022-07-29T08:36:08;100271.38;;;26.90
65272;BMP280;51868;48.812;8.198;2022-07-29T08:38:36;100276.97;;;26.92
65272;BMP280;51868;48.812;8.198;2022-07-29T08:41:03;100278.31;;;26.98
65272;BMP280;51868;48.812;8.198;2022-07-29T08:43:30;100282.53;;;26.99
65272;BMP280;51868;48.812;8.198;2022-07-29T08:45:57;100275.94;;;27.06
65272;BMP280;51868;48.812;8.198;2022-07-29T08:48:30;100277.03;;;27.19
65272;BMP280;51868;48.812;8.198;2022-07-29T08:51:00;100286.63;;;27.35
65272;BMP280;51868;48.812;8.198;2022-07-29T08:53:28;100281.16;;;27.53
65272;BMP280;51868;48.812;8.198;2022-07-29T08:55:57;100289.34;;;27.66
65272;BMP280;51868;48.812;8.198;2022-07-29T08:58:25;100284.38;;;27.66
65272;BMP280;51868;48.812;8.198;2022-07-29T09:00:53;100287.41;;;27.85
65272;BMP280;51868;48.812;8.198;2022-07-29T09:03:26;100276.78;;;28.08
65272;BMP280;51868;48.812;8.198;2022-07-29T09:06:01;100277.94;;;28.41
65272;BMP280;51868;48.812;8.198;2022-07-29T09:08:34;100280.84;;;28.61
65272;BMP280;51868;48.812;8.198;2022-07-29T09:11:05;100264.66;;;28.77
65272;BMP280;51868;48.812;8.198;2022-07-29T09:13:32;100282.78;;;28.90
65272;BMP280;51868;48.812;8.198;2022-07-29T09:16:02;100269.53;;;29.03
65272;BMP280;51868;48.812;8.198;2022-07-29T09:18:46;100276.22;;;29.16
65272;BMP280;51868;48.812;8.198;2022-07-29T09:21:15;100264.16;;;29.35
65272;BMP280;51868;48.812;8.198;2022-07-29T09:24:14;100270.97;;;29.44
65272;BMP280;51868;48.812;8.198;2022-07-29T09:26:43;100270.47;;;29.37
65272;BMP280;51868;48.812;8.198;2022-07-29T09:29:14;100268.94;;;29.40
65272;BMP280;51868;48.812;8.198;2022-07-29T09:31:42;100266.50;;;29.49
65272;BMP280;51868;48.812;8.198;2022-07-29T09:34:11;100270.84;;;29.67
65272;BMP280;51868;48.812;8.198;2022-07-29T09:36:44;100255.81;;;29.68
65272;BMP280;51868;48.812;8.198;2022-07-29T09:39:12;100263.06;;;29.65
65272;BMP280;51868;48.812;8.198;2022-07-29T09:41:47;100258.56;;;29.70
65272;BMP280;51868;48.812;8.198;2022-07-29T09:44:14;100265.53;;;29.75
65272;BMP280;51868;48.812;8.198;2022-07-29T09:46:54;100258.22;;;29.80
65272;BMP280;51868;48.812;8.198;2022-07-29T09:49:22;100261.69;;;30.02
65272;BMP280;51868;48.812;8.198;2022-07-29T09:52:00;100264.44;;;30.23
65272;BMP280;51868;48.812;8.198;2022-07-29T09:54:27;100258.53;;;30.46
65272;BMP280;51868;48.812;8.198;2022-07-29T09:56:56;100272.72;;;30.66
65272;BMP280;51868;48.812;8.198;2022-07-29T09:59:30;100249.84;;;30.83
65272;BMP280;51868;48.812;8.198;2022-07-29T10:02:14;100260.47;;;31.04
65272;BMP280;51868;48.812;8.198;2022-07-29T10:04:49;100254.59;;;31.22
65272;BMP280;51868;48.812;8.198;2022-07-29T10:07:15;100247.03;;;31.32
65272;BMP280;51868;48.812;8.198;2022-07-29T10:09:52;100252.22;;;31.44
65272;BMP280;51868;48.812;8.198;2022-07-29T10:12:22;100250.81;;;31.43
65272;BMP280;51868;48.812;8.198;2022-07-29T10:14:49;100239.16;;;31.47
65272;BMP280;51868;48.812;8.198;2022-07-29T10:17:17;100238.00;;;31.56
65272;BMP280;51868;48.812;8.198;2022-07-29T10:19:46;100236.66;;;31.70
65272;BMP280;51868;48.812;8.198;2022-07-29T10:22:14;100238.88;;;31.84
65272;BMP280;51868;48.812;8.198;2022-07-29T10:24:41;100227.41;;;31.84
65272;BMP280;51868;48.812;8.198;2022-07-29T10:27:22;100227.50;;;31.82
65272;BMP280;51868;48.812;8.198;2022-07-29T10:29:49;100225.88;;;31.71
65272;BMP280;51868;48.812;8.198;2022-07-29T10:32:33;100220.91;;;31.54
65272;BMP280;51868;48.812;8.198;2022-07-29T10:35:15;100216.34;;;31.59
65272;BMP280;51868;48.812;8.198;2022-07-29T10:40:49;100214.00;;;31.64
65272;BMP280;51868;48.812;8.198;2022-07-29T10:43:41;100219.06;;;31.64
65272;BMP280;51868;48.812;8.198;2022-07-29T10:49:12;100222.56;;;31.96
65272;BMP280;51868;48.812;8.198;2022-07-29T10:51:59;100206.34;;;32.05
65272;BMP280;51868;48.812;8.198;2022-07-29T10:54:45;100202.22;;;32.16
65272;BMP280;51868;48.812;8.198;2022-07-29T10:57:20;100198.44;;;32.35
65272;BMP280;51868;48.812;8.198;2022-07-29T10:59:49;100203.25;;;32.38
65272;BMP280;51868;48.812;8.198;2022-07-29T11:02:44;100203.13;;;32.55
65272;BMP280;51868;48.812;8.198;2022-07-29T11:05:14;100208.28;;;32.67
65272;BMP280;51868;48.812;8.198;2022-07-29T11:08:18;100212.28;;;32.87
65272;BMP280;51868;48.812;8.198;2022-07-29T11:10:49;100206.94;;;33.06
65272;BMP280;51868;48.812;8.198;2022-07-29T11:13:47;100203.25;;;33.08
65272;BMP280;51868;48.812;8.198;2022-07-29T11:16:21;100199.94;;;33.16
65272;BMP280;51868;48.812;8.198;2022-07-29T11:22:45;100214.34;;;32.89
65272;BMP280;51868;48.812;8.198;2022-07-29T11:25:15;100224.06;;;32.81
65272;BMP280;51868;48.812;8.198;2022-07-29T11:27:46;100222.88;;;32.91
65272;BMP280;51868;48.812;8.198;2022-07-29T11:30:17;100210.09;;;33.15
65272;BMP280;51868;48.812;8.198;2022-07-29T11:32:59;100207.13;;;33.30
65272;BMP280;51868;48.812;8.198;2022-07-29T11:35:26;100212.59;;;33.21
65272;BMP280;51868;48.812;8.198;2022-07-29T11:41:23;100220.41;;;32.83
65272;BMP280;51868;48.812;8.198;2022-07-29T11:43:54;100221.84;;;32.69
65272;BMP280;51868;48.812;8.198;2022-07-29T11:46:43;100215.38;;;32.68
65272;BMP280;51868;48.812;8.198;2022-07-29T11:49:13;100210.06;;;32.60
65272;BMP280;51868;48.812;8.198;2022-07-29T11:51:50;100213.91;;;32.55
65272;BMP280;51868;48.812;8.198;2022-07-29T11:54:34;100217.13;;;32.48
65272;BMP280;51868;48.812;8.198;2022-07-29T11:57:06;100221.19;;;32.39
65272;BMP280;51868;48.812;8.198;2022-07-29T11:59:41;100216.16;;;32.25
65272;BMP280;51868;48.812;8.198;2022-07-29T12:02:13;100222.31;;;32.16
65272;BMP280;51868;48.812;8.198;2022-07-29T12:05:01;100227.00;;;31.93
65272;BMP280;51868;48.812;8.198;2022-07-29T12:07:28;100234.59;;;31.69
65272;BMP280;51868;48.812;8.198;2022-07-29T12:10:18;100238.13;;;31.54
65272;BMP280;51868;48.812;8.198;2022-07-29T12:12:52;100232.13;;;31.44
65272;BMP280;51868;48.812;8.198;2022-07-29T12:15:23;100232.03;;;31.31
65272;BMP280;51868;48.812;8.198;2022-07-29T12:17:54;100234.09;;;31.16
65272;BMP280;51868;48.812;8.198;2022-07-29T12:20:26;100243.78;;;31.08
65272;BMP280;51868;48.812;8.198;2022-07-29T12:22:58;100244.09;;;31.00
65272;BMP280;51868;48.812;8.198;2022-07-29T12:25:34;100244.03;;;30.85
65272;BMP280;51868;48.812;8.198;2022-07-29T12:28:06;100241.59;;;30.75
65272;BMP280;51868;48.812;8.198;2022-07-29T12:30:41;100245.31;;;30.72
65272;BMP280;51868;48.812;8.198;2022-07-29T12:33:14;100250.31;;;30.71
65272;BMP280;51868;48.812;8.198;2022-07-29T12:35:49;100245.31;;;30.72
65272;BMP280;51868;48.812;8.198;2022-07-29T12:38:30;100247.72;;;30.65
65272;BMP280;51868;48.812;8.198;2022-07-29T12:40:57;100251.53;;;30.59
65272;BMP280;51868;48.812;8.198;2022-07-29T12:43:25;100241.28;;;30.64
65272;BMP280;51868;48.812;8.198;2022-07-29T12:45:56;100242.53;;;30.69
65272;BMP280;51868;48.812;8.198;2022-07-29T12:48:34;100241.50;;;30.77
65272;BMP280;51868;48.812;8.198;2022-07-29T12:51:08;100236.97;;;30.82
65272;BMP280;51868;48.812;8.198;2022-07-29T12:53:38;100236.13;;;30.86
65272;BMP280;51868;48.812;8.198;2022-07-29T12:56:16;100237.34;;;30.91
65272;BMP280;51868;48.812;8.198;2022-07-29T12:58:48;100234.47;;;30.91
65272;BMP280;51868;48.812;8.198;2022-07-29T13:01:23;100245.47;;;30.84
65272;BMP280;51868;48.812;8.198;2022-07-29T13:04:00;100239.94;;;30.80
65272;BMP280;51868;48.812;8.198;2022-07-29T13:06:43;100246.72;;;30.73
65272;BMP280;51868;48.812;8.198;2022-07-29T13:09:11;100246.00;;;30.72
65272;BMP280;51868;48.812;8.198;2022-07-29T13:11:46;100236.72;;;30.72
65272;BMP280;51868;48.812;8.198;2022-07-29T13:14:20;100249.56;;;30.73
65272;BMP280;51868;48.812;8.198;2022-07-29T13:17:01;100249.47;;;30.75
65272;BMP280;51868;48.812;8.198;2022-07-29T13:19:33;100246.06;;;30.70
65272;BMP280;51868;48.812;8.198;2022-07-29T13:22:02;100246.06;;;30.70
65272;BMP280;51868;48.812;8.198;2022-07-29T13:24:29;100256.06;;;30.71
65272;BMP280;51868;48.812;8.198;2022-07-29T13:26:55;100250.50;;;30.67
65272;BMP280;51868;48.812;8.198;2022-07-29T13:29:22;100251.91;;;30.68
65272;BMP280;51868;48.812;8.198;2022-07-29T13:31:52;100240.97;;;30.73
65272;BMP280;51868;48.812;8.198;2022-07-29T13:34:19;100242.97;;;30.76
65272;BMP280;51868;48.812;8.198;2022-07-29T13:39:33;100228.03;;;30.90
65272;BMP280;51868;48.812;8.198;2022-07-29T13:42:00;100233.63;;;30.94
65272;BMP280;51868;48.812;8.198;2022-07-29T13:44:27;100234.97;;;30.95
65272;BMP280;51868;48.812;8.198;2022-07-29T13:47:00;100234.81;;;30.99
65272;BMP280;51868;48.812;8.198;2022-07-29T13:49:27;100234.91;;;30.97
65272;BMP280;51868;48.812;8.198;2022-07-29T13:51:54;100242.53;;;31.03
65272;BMP280;51868;48.812;8.198;2022-07-29T13:54:22;100239.06;;;31.01
65272;BMP280;51868;48.812;8.198;2022-07-29T13:56:51;100229.00;;;31.02
65272;BMP280;51868;48.812;8.198;2022-07-29T13:59:18;100231.06;;;31.03
65272;BMP280;51868;48.812;8.198;2022-07-29T14:01:44;100230.19;;;31.07
65272;BMP280;51868;48.812;8.198;2022-07-29T14:04:13;100229.22;;;31.12
65272;BMP280;51868;48.812;8.198;2022-07-29T14:06:45;100220.72;;;31.10
65272;BMP280;51868;48.812;8.198;2022-07-29T14:09:19;100216.22;;;30.98
65272;BMP280;51868;48.812;8.198;2022-07-29T14:11:46;100216.81;;;30.84
65272;BMP280;51868;48.812;8.198;2022-07-29T14:14:21;100215.88;;;30.73
65272;BMP280;51868;48.812;8.198;2022-07-29T14:16:52;100210.50;;;30.65
65272;BMP280;51868;48.812;8.198;2022-07-29T14:19:18;100213.00;;;30.56
65272;BMP280;51868;48.812;8.198;2022-07-29T14:21:45;100220.47;;;30.49
65272;BMP280;51868;48.812;8.198;2022-07-29T14:24:12;100216.44;;;30.42
65272;BMP280;51868;48.812;8.198;2022-07-29T14:26:46;100222.88;;;30.43
65272;BMP280;51868;48.812;8.198;2022-07-29T14:29:13;100215.66;;;30.44
65272;BMP280;51868;48.812;8.198;2022-07-29T14:31:46;100221.16;;;30.50
65272;BMP280;51868;48.812;8.198;2022-07-29T14:34:16;100229.66;;;30.52
65272;BMP280;51868;48.812;8.198;2022-07-29T14:36:43;100223.38;;;30.47
65272;BMP280;51868;48.812;8.198;2022-07-29T14:39:15;100219.06;;;30.48